Terminal Aerodrome Forecast
Issued by NWS Shreveport, LA

Home | Current Version | Previous Version | Text Only | Print | Product List | Glossary On
Versions: 1 2 3 4 5 6 7 8 9 10 11 12
569
FTUS44 KSHV 161720
TAFELD
TAF
KELD 161720Z 1618/1718 16007KT P6SM BKN180 BKN250
     FM170100 12003KT P6SM VCSH BKN050
     FM170300 11004KT P6SM -RA BKN050
     FM170600 VRB06KT 4SM SHRA BR OVC010
     FM170800 10005KT 2SM SHRA BR OVC004
     FM171600 13005KT 4SM BR VCSH OVC007=

USA.gov is the U.S. government's official web portal to all federal, state and local government web resources and services.